createdAt,value
2022-10-23T00:01:01.822Z,71.47
2022-10-23T00:03:29.111Z,71.08
2022-10-23T00:05:55.901Z,70.31
2022-10-23T00:08:22.512Z,70.26
2022-10-23T00:10:49.739Z,71.37
2022-10-23T00:13:16.328Z,70.89
2022-10-23T00:15:43.067Z,70.40
2022-10-23T00:18:09.882Z,71.81
2022-10-23T00:20:36.496Z,70.74
2022-10-23T00:23:03.180Z,70.36
2022-10-23T00:25:29.851Z,70.38
2022-10-23T00:27:56.399Z,70.76
2022-10-23T00:30:22.979Z,70.98
2022-10-23T00:32:50.108Z,71.03
2022-10-23T00:35:17.019Z,70.60
2022-10-23T00:37:43.836Z,70.35
2022-10-23T00:40:11.145Z,68.61
2022-10-23T00:42:37.837Z,70.72
2022-10-23T00:45:26.664Z,69.75
2022-10-23T00:47:55.343Z,70.24
2022-10-23T00:50:24.440Z,71.25
2022-10-23T00:52:54.263Z,70.25
2022-10-23T00:55:22.847Z,69.79
2022-10-23T00:57:51.236Z,69.56
2022-10-23T01:00:30.752Z,69.85
2022-10-23T01:02:58.974Z,69.13
2022-10-23T01:05:36.512Z,68.53
2022-10-23T01:08:10.200Z,70.27
2022-10-23T01:10:50.923Z,68.72
2022-10-23T01:13:23.759Z,66.87
2022-10-23T01:16:10.754Z,67.22
2022-10-23T01:18:44.659Z,68.63
2022-10-23T01:21:21.670Z,68.97
2022-10-23T01:24:13.308Z,69.05
2022-10-23T01:27:03.471Z,68.38
2022-10-23T01:29:43.827Z,69.05
2022-10-23T01:32:27.295Z,69.25
2022-10-23T01:35:34.603Z,70.68
2022-10-23T01:38:19.436Z,70.29
2022-10-23T01:41:17.448Z,70.29
2022-10-23T01:44:04.199Z,70.20
2022-10-23T01:46:37.906Z,69.67
2022-10-23T01:49:11.379Z,70.35
2022-10-23T01:51:41.533Z,70.79
2022-10-23T01:54:11.614Z,69.98
2022-10-23T01:56:41.405Z,71.79
2022-10-23T01:59:14.593Z,70.74
2022-10-23T02:01:47.130Z,70.26
2022-10-23T02:04:21.343Z,68.40
2022-10-23T02:06:48.176Z,65.85
2022-10-23T02:09:15.602Z,66.07
2022-10-23T02:12:08.193Z,67.33
2022-10-23T02:15:02.799Z,66.87
2022-10-23T02:17:41.884Z,67.46
2022-10-23T02:20:37.314Z,65.51
2022-10-23T02:23:17.660Z,65.01
2022-10-23T02:26:18.189Z,63.49
2022-10-23T02:28:55.642Z,63.13
2022-10-23T02:31:23.815Z,62.05
2022-10-23T02:33:51.118Z,62.59
2022-10-23T02:36:20.481Z,62.40
2022-10-23T02:38:47.353Z,62.50
2022-10-23T02:41:14.084Z,63.11
2022-10-23T02:44:20.083Z,62.73
2022-10-23T02:47:05.203Z,62.71
2022-10-23T02:49:44.600Z,62.65
2022-10-23T02:52:26.453Z,62.85
2022-10-23T02:55:08.827Z,65.81
2022-10-23T02:58:09.002Z,67.39
2022-10-23T03:00:49.175Z,67.55
2022-10-23T03:03:26.996Z,67.82
2022-10-23T03:05:54.656Z,66.11
2022-10-23T03:08:21.612Z,65.08
2022-10-23T03:13:21.984Z,64.35
2022-10-23T03:15:48.710Z,63.65
2022-10-23T03:18:15.276Z,63.90
2022-10-23T03:20:46.741Z,63.42
2022-10-23T03:23:14.589Z,64.69
2022-10-23T03:25:42.600Z,65.08
2022-10-23T03:28:10.770Z,66.12
2022-10-23T03:30:37.497Z,68.41
2022-10-23T03:33:04.180Z,66.27
2022-10-23T03:35:34.257Z,67.21
2022-10-23T03:38:01.591Z,66.99
2022-10-23T03:40:28.414Z,67.91
2022-10-23T03:42:55.208Z,67.61
2022-10-23T03:45:22.860Z,66.91
2022-10-23T03:47:51.666Z,68.07
2022-10-23T03:50:19.459Z,68.44
2022-10-23T03:52:46.330Z,70.24
2022-10-23T03:55:13.302Z,70.77
2022-10-23T03:57:41.575Z,70.20
2022-10-23T04:00:08.910Z,69.69
2022-10-23T04:02:43.568Z,70.75
2022-10-23T04:05:10.933Z,70.89
2022-10-23T04:07:39.538Z,71.63
2022-10-23T04:10:06.607Z,71.41
2022-10-23T04:12:34.870Z,71.35
2022-10-23T04:15:01.603Z,71.82
2022-10-23T04:19:59.973Z,71.37
2022-10-23T04:22:28.574Z,71.61
2022-10-23T04:24:56.290Z,72.00
2022-10-23T04:27:23.014Z,72.58
2022-10-23T04:29:49.766Z,71.39
2022-10-23T04:32:16.734Z,72.00
2022-10-23T04:34:44.403Z,70.48
2022-10-23T04:37:11.002Z,69.99
2022-10-23T04:39:38.286Z,67.68
2022-10-23T04:42:05.048Z,68.93
2022-10-23T04:44:31.739Z,68.89
2022-10-23T04:46:58.382Z,68.61
2022-10-23T04:49:25.252Z,67.79
2022-10-23T04:52:11.033Z,68.51
2022-10-23T04:54:38.845Z,67.97
2022-10-23T04:57:31.568Z,67.21
2022-10-23T05:00:01.552Z,67.04
2022-10-23T05:02:35.662Z,65.87
2022-10-23T05:05:02.800Z,64.62
2022-10-23T05:07:35.699Z,64.16
2022-10-23T05:10:21.707Z,63.78
2022-10-23T05:12:55.455Z,62.98
2022-10-23T05:15:24.411Z,62.80
2022-10-23T05:17:55.873Z,63.04
2022-10-23T05:20:29.162Z,63.00
2022-10-23T05:22:58.457Z,62.73
2022-10-23T05:25:26.120Z,62.12
2022-10-23T05:28:01.957Z,62.44
2022-10-23T05:30:28.936Z,62.02
2022-10-23T05:32:55.850Z,62.16
2022-10-23T05:35:25.531Z,62.62
2022-10-23T05:37:55.066Z,63.09
2022-10-23T05:40:24.712Z,62.79
2022-10-23T05:42:58.426Z,62.58
2022-10-23T05:45:43.809Z,63.83
2022-10-23T05:48:33.940Z,65.69
2022-10-23T05:51:22.939Z,64.46
2022-10-23T05:54:03.487Z,65.61
2022-10-23T05:56:32.481Z,66.14
2022-10-23T05:59:08.289Z,66.96
2022-10-23T06:01:48.985Z,67.39
2022-10-23T06:04:21.830Z,66.12
2022-10-23T06:07:04.405Z,65.29
2022-10-23T06:09:31.540Z,64.54
2022-10-23T06:12:01.511Z,64.65
2022-10-23T06:14:28.328Z,65.26
2022-10-23T06:16:55.004Z,65.69
2022-10-23T06:19:23.470Z,67.13
2022-10-23T06:21:54.097Z,67.65
2022-10-23T06:24:26.561Z,69.42
2022-10-23T06:26:59.210Z,68.37
2022-10-23T06:29:41.618Z,66.94
2022-10-23T06:32:09.369Z,67.22
2022-10-23T06:34:37.430Z,66.12
2022-10-23T06:37:04.900Z,66.45
2022-10-23T06:39:32.348Z,67.36
2022-10-23T06:42:09.253Z,68.64
2022-10-23T06:44:57.079Z,69.48
2022-10-23T06:47:47.065Z,69.18
2022-10-23T06:50:16.994Z,69.28
2022-10-23T06:52:47.343Z,67.21
2022-10-23T06:55:17.922Z,68.22
2022-10-23T06:57:45.258Z,68.68
2022-10-23T07:00:13.128Z,68.22
2022-10-23T07:02:50.250Z,68.21
2022-10-23T07:05:17.904Z,66.48
2022-10-23T07:07:44.786Z,65.37
2022-10-23T07:10:15.420Z,64.27
2022-10-23T07:12:45.324Z,63.20
2022-10-23T07:15:36.976Z,63.97
2022-10-23T07:18:07.226Z,64.48
2022-10-23T07:20:59.796Z,64.21
2022-10-23T07:23:26.654Z,63.55
2022-10-23T07:25:54.179Z,65.14
2022-10-23T07:28:23.148Z,64.53
2022-10-23T07:31:00.038Z,64.73
2022-10-23T07:33:42.901Z,65.02
2022-10-23T07:36:19.966Z,65.77
2022-10-23T07:38:47.223Z,63.93
2022-10-23T07:41:15.483Z,62.83
2022-10-23T07:43:42.376Z,60.61
2022-10-23T07:46:10.048Z,59.28
2022-10-23T07:48:39.646Z,59.21
2022-10-23T07:51:14.158Z,61.13
2022-10-23T07:53:50.469Z,60.85
2022-10-23T07:56:31.528Z,61.48
2022-10-23T07:59:17.837Z,61.58
2022-10-23T08:01:55.728Z,60.48
2022-10-23T08:04:27.759Z,59.83
2022-10-23T08:07:14.661Z,60.09
2022-10-23T08:09:44.584Z,59.59
2022-10-23T08:12:11.904Z,59.35
2022-10-23T08:14:39.358Z,59.52
2022-10-23T08:17:09.832Z,58.69
2022-10-23T08:19:59.289Z,60.12
2022-10-23T08:22:33.762Z,57.95
2022-10-23T08:25:00.541Z,58.39
2022-10-23T08:27:27.197Z,59.50
2022-10-23T08:29:53.908Z,58.44
2022-10-23T08:32:21.128Z,56.56
2022-10-23T08:34:55.120Z,58.56
2022-10-23T08:37:24.077Z,60.75
2022-10-23T08:39:53.226Z,61.06
2022-10-23T08:42:27.644Z,60.28
2022-10-23T08:45:08.054Z,60.99
2022-10-23T08:47:47.128Z,60.34
2022-10-23T08:50:41.176Z,57.57
2022-10-23T08:53:23.077Z,55.94
2022-10-23T08:56:11.192Z,55.50
2022-10-23T08:58:48.998Z,56.25
2022-10-23T09:01:37.448Z,54.60
2022-10-23T09:04:05.560Z,53.80
2022-10-23T09:06:46.882Z,52.32
2022-10-23T09:09:35.560Z,51.00
2022-10-23T09:12:11.723Z,50.57
2022-10-23T09:14:56.887Z,49.42
2022-10-23T09:17:33.637Z,50.69
2022-10-23T09:20:22.141Z,51.70
2022-10-23T09:22:53.845Z,50.59
2022-10-23T09:25:26.341Z,48.65
2022-10-23T09:28:01.362Z,47.98
2022-10-23T09:30:38.030Z,49.36
2022-10-23T09:33:19.979Z,48.28
2022-10-23T09:35:55.889Z,47.48
2022-10-23T09:38:35.795Z,46.60
2022-10-23T09:41:14.791Z,46.84
2022-10-23T09:43:41.620Z,47.27
2022-10-23T09:46:09.738Z,47.63
2022-10-23T09:48:39.740Z,47.82
2022-10-23T09:51:20.078Z,46.12
2022-10-23T09:53:53.044Z,49.71
2022-10-23T09:56:28.927Z,50.05
2022-10-23T09:59:19.140Z,48.13
2022-10-23T10:01:49.551Z,49.93
2022-10-23T10:04:48.121Z,48.30
2022-10-23T10:07:24.735Z,47.23
2022-10-23T10:09:53.960Z,47.37
2022-10-23T10:12:35.755Z,46.38
2022-10-23T10:15:11.647Z,46.75
2022-10-23T10:17:55.754Z,46.17
2022-10-23T10:20:56.558Z,44.73
2022-10-23T10:23:41.633Z,45.12
2022-10-23T10:26:23.014Z,45.95
2022-10-23T10:29:29.951Z,46.66
2022-10-23T10:32:18.605Z,45.77
2022-10-23T10:35:04.862Z,46.17
2022-10-23T10:37:43.927Z,44.60
2022-10-23T10:40:34.905Z,44.80
2022-10-23T10:43:29.490Z,44.50
2022-10-23T10:46:09.278Z,44.84
2022-10-23T10:48:42.037Z,44.87
2022-10-23T10:52:00.834Z,45.63
2022-10-23T10:54:34.515Z,46.18
2022-10-23T10:57:09.620Z,46.14
2022-10-23T10:59:42.533Z,46.78
2022-10-23T11:02:32.876Z,47.39
2022-10-23T11:05:11.739Z,47.30
2022-10-23T11:07:44.938Z,47.58
2022-10-23T11:10:18.271Z,49.30
2022-10-23T11:12:47.168Z,49.23
2022-10-23T11:15:24.687Z,47.96
2022-10-23T11:17:57.650Z,48.30
2022-10-23T11:20:38.972Z,48.54
2022-10-23T11:23:32.108Z,48.75
2022-10-23T11:26:30.177Z,49.37
2022-10-23T11:29:12.105Z,48.16
2022-10-23T11:31:41.827Z,48.18
2022-10-23T11:34:11.063Z,48.79
2022-10-23T11:36:43.846Z,49.17
2022-10-23T11:39:27.975Z,49.98
2022-10-23T11:42:12.979Z,50.62
2022-10-23T11:44:48.376Z,50.98
2022-10-23T11:47:39.603Z,50.58
2022-10-23T11:50:07.141Z,50.39
2022-10-23T11:52:45.691Z,50.45
2022-10-23T11:55:32.937Z,51.48
2022-10-23T11:58:22.469Z,51.63
2022-10-23T12:01:01.799Z,52.53
2022-10-23T12:03:39.820Z,52.74
2022-10-23T12:06:08.085Z,51.52
2022-10-23T12:08:40.891Z,51.99
2022-10-23T12:11:27.581Z,52.26
2022-10-23T12:13:55.070Z,52.89
2022-10-23T12:16:33.990Z,52.97
2022-10-23T12:19:18.927Z,52.96
2022-10-23T12:21:46.073Z,52.68
2022-10-23T12:24:50.346Z,52.50
2022-10-23T12:27:26.416Z,52.00
2022-10-23T12:30:11.845Z,51.89
2022-10-23T12:32:47.145Z,51.50
2022-10-23T12:35:19.700Z,52.44
2022-10-23T12:37:55.914Z,52.20
2022-10-23T12:40:27.298Z,51.93
2022-10-23T12:42:56.907Z,53.32
2022-10-23T12:45:27.408Z,53.98
2022-10-23T12:47:54.692Z,54.23
2022-10-23T12:50:26.300Z,53.53
2022-10-23T12:53:01.087Z,53.08
2022-10-23T12:58:30.665Z,53.45
2022-10-23T13:01:02.846Z,53.70
2022-10-23T13:03:31.243Z,52.27
2022-10-23T13:06:00.122Z,52.42
2022-10-23T13:08:39.188Z,51.30
2022-10-23T13:11:41.220Z,51.96
2022-10-23T13:14:13.416Z,51.75
2022-10-23T13:16:40.712Z,51.13
2022-10-23T13:19:23.079Z,50.74
2022-10-23T13:21:49.960Z,50.45
2022-10-23T13:24:21.150Z,50.92
2022-10-23T13:26:48.006Z,49.79
2022-10-23T13:29:22.496Z,49.39
2022-10-23T13:31:50.034Z,49.34
2022-10-23T13:34:16.880Z,48.75
2022-10-23T13:37:25.558Z,50.15
2022-10-23T13:40:04.272Z,49.02
2022-10-23T13:42:31.287Z,49.91
2022-10-23T13:44:57.904Z,49.97
2022-10-23T13:47:24.636Z,51.58
2022-10-23T13:49:51.357Z,51.33
2022-10-23T13:52:20.978Z,50.77
2022-10-23T13:54:48.147Z,50.31
2022-10-23T13:57:15.654Z,50.36
2022-10-23T13:59:42.836Z,50.87
2022-10-23T14:02:28.647Z,49.84
2022-10-23T14:04:55.561Z,49.72
2022-10-23T14:07:23.010Z,50.39
2022-10-23T14:09:50.658Z,49.98
2022-10-23T14:12:18.083Z,50.50
2022-10-23T14:14:44.712Z,51.69
2022-10-23T14:17:11.302Z,52.26
2022-10-23T14:22:11.648Z,54.07
2022-10-23T14:24:38.519Z,54.06
2022-10-23T14:27:05.603Z,54.82
2022-10-23T14:29:32.424Z,54.62
2022-10-23T14:32:00.149Z,55.09
2022-10-23T14:34:29.990Z,54.96
2022-10-23T14:37:08.038Z,54.91
2022-10-23T14:39:37.943Z,55.24
2022-10-23T14:42:05.922Z,55.44
2022-10-23T14:44:32.833Z,55.54
2022-10-23T14:47:00.240Z,54.88
2022-10-23T14:49:26.861Z,55.21
2022-10-23T14:51:54.288Z,55.29
2022-10-23T14:54:21.217Z,55.79
2022-10-23T14:56:47.900Z,55.63
2022-10-23T14:59:15.226Z,55.29
2022-10-23T15:01:45.658Z,55.41
2022-10-23T15:04:15.675Z,55.92
2022-10-23T15:06:43.085Z,55.76
2022-10-23T15:09:11.293Z,55.02
2022-10-23T15:11:37.910Z,56.27
2022-10-23T15:14:04.844Z,57.00
2022-10-23T15:16:31.827Z,56.82
2022-10-23T15:18:58.518Z,56.62
2022-10-23T15:21:25.624Z,56.46
2022-10-23T15:23:54.868Z,56.94
2022-10-23T15:26:23.207Z,57.03
2022-10-23T15:28:56.803Z,56.79
2022-10-23T15:31:29.415Z,56.71
2022-10-23T15:34:00.115Z,56.50
2022-10-23T15:36:27.606Z,56.86
2022-10-23T15:38:54.380Z,57.63
2022-10-23T15:41:30.163Z,57.57
2022-10-23T15:43:58.794Z,57.38
2022-10-23T15:46:26.226Z,58.12
2022-10-23T15:48:53.583Z,57.46
2022-10-23T15:51:20.599Z,56.93
2022-10-23T15:53:47.300Z,57.69
2022-10-23T15:56:25.149Z,57.96
2022-10-23T15:58:52.188Z,59.40
2022-10-23T16:01:19.208Z,62.66
2022-10-23T16:04:00.827Z,59.26
2022-10-23T16:06:27.525Z,58.43
2022-10-23T16:11:29.712Z,58.10
2022-10-23T16:14:00.011Z,58.31
2022-10-23T16:16:36.146Z,57.18
2022-10-23T16:19:07.318Z,57.94
2022-10-23T16:21:36.087Z,57.80
2022-10-23T16:24:04.978Z,58.58
2022-10-23T16:27:09.214Z,60.90
2022-10-23T16:30:44.713Z,62.65
2022-10-23T16:33:17.108Z,63.49
2022-10-23T16:35:49.680Z,63.24
2022-10-23T16:38:22.141Z,62.32
2022-10-23T16:40:54.916Z,61.48
2022-10-23T16:43:44.836Z,61.21
2022-10-23T16:46:29.487Z,61.76
2022-10-23T16:48:58.031Z,60.48
2022-10-23T16:51:26.811Z,59.46
2022-10-23T16:53:56.395Z,61.72
2022-10-23T16:56:25.388Z,62.71
2022-10-23T16:58:52.211Z,61.57
2022-10-23T17:01:25.810Z,61.34
2022-10-23T17:03:54.040Z,61.39
2022-10-23T17:06:24.197Z,61.11
2022-10-23T17:08:51.470Z,61.56
2022-10-23T17:11:32.184Z,61.41
2022-10-23T17:14:07.581Z,61.49
2022-10-23T17:17:05.666Z,62.28
2022-10-23T17:19:44.666Z,62.57
2022-10-23T17:22:14.181Z,61.59
2022-10-23T17:24:42.453Z,62.02
2022-10-23T17:27:09.379Z,61.78
2022-10-23T17:29:36.456Z,61.46
2022-10-23T17:32:03.597Z,61.48
2022-10-23T17:34:30.366Z,63.35
2022-10-23T17:36:57.247Z,63.49
2022-10-23T17:39:26.998Z,62.27
2022-10-23T17:41:55.093Z,62.31
2022-10-23T17:44:22.983Z,60.86
2022-10-23T17:46:53.603Z,60.78
2022-10-23T17:49:20.634Z,60.68
2022-10-23T17:51:52.466Z,60.49
2022-10-23T17:54:19.672Z,63.26
2022-10-23T17:56:46.318Z,61.45
2022-10-23T17:59:16.381Z,60.70
2022-10-23T18:01:49.561Z,60.55
2022-10-23T18:04:18.891Z,60.42
2022-10-23T18:06:52.262Z,60.83
2022-10-23T18:09:20.206Z,61.07
2022-10-23T18:11:48.467Z,60.42
2022-10-23T18:14:17.841Z,59.85
2022-10-23T18:16:46.023Z,60.27
2022-10-23T18:19:13.743Z,61.92
2022-10-23T18:21:40.651Z,64.21
2022-10-23T18:24:07.483Z,63.02
2022-10-23T18:26:40.556Z,64.00
2022-10-23T18:29:08.971Z,63.46
2022-10-23T18:31:37.417Z,62.09
2022-10-23T18:34:11.924Z,61.61
2022-10-23T18:36:40.841Z,60.78
2022-10-23T18:39:13.151Z,59.75
2022-10-23T18:41:42.718Z,61.11
2022-10-23T18:44:11.463Z,62.85
2022-10-23T18:46:38.137Z,63.81
2022-10-23T18:49:05.109Z,62.49
2022-10-23T18:51:34.583Z,61.17
2022-10-23T18:54:04.089Z,61.14
2022-10-23T18:56:31.361Z,61.27
2022-10-23T18:59:00.525Z,62.38
2022-10-23T19:01:28.506Z,62.01
2022-10-23T19:03:57.491Z,60.88
2022-10-23T19:06:24.401Z,60.36
2022-10-23T19:08:51.562Z,60.20
2022-10-23T19:11:20.463Z,59.89
2022-10-23T19:13:47.325Z,60.44
2022-10-23T19:16:27.597Z,61.84
2022-10-23T19:18:59.014Z,62.60
2022-10-23T19:21:33.945Z,61.70
2022-10-23T19:24:06.530Z,62.14
2022-10-23T19:26:35.652Z,62.86
2022-10-23T19:29:02.854Z,61.41
2022-10-23T19:31:29.779Z,61.38
2022-10-23T19:33:59.108Z,60.84
2022-10-23T19:36:25.760Z,60.87
2022-10-23T19:38:52.477Z,60.58
2022-10-23T19:41:20.069Z,61.08
2022-10-23T19:43:48.371Z,60.49
2022-10-23T19:46:16.323Z,60.25
2022-10-23T19:48:44.558Z,60.31
2022-10-23T19:51:13.312Z,60.55
2022-10-23T19:53:42.080Z,60.69
2022-10-23T19:56:11.014Z,61.41
2022-10-23T19:58:38.190Z,62.59
2022-10-23T20:01:10.948Z,62.56
2022-10-23T20:03:39.691Z,64.19
2022-10-23T20:06:15.853Z,66.15
2022-10-23T20:08:43.073Z,63.10
2022-10-23T20:11:17.929Z,62.81
2022-10-23T20:13:48.287Z,63.07
2022-10-23T20:16:27.122Z,62.88
2022-10-23T20:18:54.094Z,63.01
2022-10-23T20:21:22.322Z,62.94
2022-10-23T20:23:49.133Z,61.72
2022-10-23T20:26:18.906Z,62.22
2022-10-23T20:28:47.133Z,61.90
2022-10-23T20:31:16.182Z,61.67
2022-10-23T20:33:43.341Z,61.20
2022-10-23T20:36:22.476Z,61.70
2022-10-23T20:38:49.495Z,61.41
2022-10-23T20:41:16.409Z,61.41
2022-10-23T20:43:43.518Z,62.17
2022-10-23T20:46:10.963Z,61.48
2022-10-23T20:48:39.566Z,60.46
2022-10-23T20:51:14.519Z,62.23
2022-10-23T20:53:42.901Z,61.56
2022-10-23T20:56:13.971Z,63.33
2022-10-23T20:58:41.439Z,62.35
2022-10-23T21:01:11.426Z,63.55
2022-10-23T21:03:38.768Z,62.31
2022-10-23T21:06:12.551Z,63.15
2022-10-23T21:08:40.134Z,62.11
2022-10-23T21:11:08.330Z,61.79
2022-10-23T21:13:35.077Z,62.05
2022-10-23T21:16:15.149Z,62.08
2022-10-23T21:18:46.021Z,63.36
2022-10-23T21:21:17.184Z,62.73
2022-10-23T21:23:44.076Z,62.49
2022-10-23T21:26:11.585Z,62.49
2022-10-23T21:28:38.999Z,62.40
2022-10-23T21:31:09.688Z,64.78
2022-10-23T21:33:37.277Z,64.61
2022-10-23T21:36:13.266Z,63.68
2022-10-23T21:38:40.751Z,62.63
2022-10-23T21:41:09.155Z,63.06
2022-10-23T21:43:36.288Z,62.90
2022-10-23T21:46:08.197Z,62.79
2022-10-23T21:48:36.043Z,61.59
2022-10-23T21:51:02.901Z,61.25
2022-10-23T21:53:29.752Z,61.23
2022-10-23T21:56:01.004Z,61.89
2022-10-23T21:58:27.869Z,62.26
2022-10-23T22:00:54.550Z,62.00
2022-10-23T22:03:21.231Z,61.62
2022-10-23T22:05:47.828Z,61.41
2022-10-23T22:08:14.402Z,62.75
2022-10-23T22:10:41.070Z,62.40
2022-10-23T22:13:07.621Z,61.80
2022-10-23T22:15:34.341Z,61.79
2022-10-23T22:18:00.965Z,62.23
2022-10-23T22:20:27.577Z,63.13
2022-10-23T22:22:54.016Z,65.24
2022-10-23T22:25:20.717Z,63.94
2022-10-23T22:27:47.449Z,65.99
2022-10-23T22:30:14.284Z,67.17
2022-10-23T22:32:41.061Z,65.29
2022-10-23T22:35:08.055Z,64.42
2022-10-23T22:37:34.718Z,65.89
2022-10-23T22:40:02.424Z,64.64
2022-10-23T22:42:30.145Z,63.67
2022-10-23T22:44:56.779Z,64.16
2022-10-23T22:47:23.433Z,63.53
2022-10-23T22:49:50.304Z,64.54
2022-10-23T22:52:17.044Z,65.34
2022-10-23T22:54:43.692Z,64.47
2022-10-23T22:57:10.349Z,63.52
2022-10-23T22:59:37.004Z,62.53
2022-10-23T23:02:03.737Z,62.89
2022-10-23T23:04:37.959Z,64.19
2022-10-23T23:07:12.256Z,64.25
2022-10-23T23:09:43.956Z,63.56
2022-10-23T23:12:13.007Z,66.67
2022-10-23T23:14:39.971Z,66.03
2022-10-23T23:17:08.397Z,67.76
2022-10-23T23:19:35.851Z,65.72
2022-10-23T23:22:02.988Z,66.74
2022-10-23T23:24:29.801Z,65.69
2022-10-23T23:26:56.449Z,63.85
2022-10-23T23:29:24.011Z,64.75
2022-10-23T23:31:50.721Z,64.43
2022-10-23T23:34:17.387Z,64.62
2022-10-23T23:36:44.043Z,64.83
2022-10-23T23:39:11.534Z,66.78
2022-10-23T23:41:38.514Z,65.85
2022-10-23T23:44:05.558Z,68.17
2022-10-23T23:46:32.280Z,68.88
2022-10-23T23:48:58.913Z,70.10
2022-10-23T23:51:25.915Z,67.58
2022-10-23T23:53:53.139Z,68.65
2022-10-23T23:56:21.025Z,67.50
2022-10-23T23:58:48.104Z,68.40
